sensor_id;sensor_type;location;lat;lon;timestamp;pressure;altitude;pressure_sealevel;temperature;humidity
65227;BME280;51805;49.012;12.104;2023-04-24T00:02:07;96847.09;;;23.36;47.42
65227;BME280;51805;49.012;12.104;2023-04-24T00:04:32;96845.97;;;23.37;47.74
65227;BME280;51805;49.012;12.104;2023-04-24T00:06:58;96845.53;;;23.35;47.43
65227;BME280;51805;49.012;12.104;2023-04-24T00:09:23;96840.72;;;23.32;47.67
65227;BME280;51805;49.012;12.104;2023-04-24T00:11:48;96826.47;;;23.26;47.50
65227;BME280;51805;49.012;12.104;2023-04-24T00:14:13;96830.50;;;23.29;47.59
65227;BME280;51805;49.012;12.104;2023-04-24T00:16:39;96828.25;;;23.31;47.56
65227;BME280;51805;49.012;12.104;2023-04-24T00:19:04;96836.25;;;23.36;47.54
65227;BME280;51805;49.012;12.104;2023-04-24T00:21:29;96830.84;;;23.36;47.56
65227;BME280;51805;49.012;12.104;2023-04-24T00:23:55;96822.22;;;23.34;47.61
65227;BME280;51805;49.012;12.104;2023-04-24T00:26:20;96807.19;;;23.28;47.55
65227;BME280;51805;49.012;12.104;2023-04-24T00:28:45;96824.28;;;23.37;47.67
65227;BME280;51805;49.012;12.104;2023-04-24T00:31:10;96824.44;;;23.32;47.65
65227;BME280;51805;49.012;12.104;2023-04-24T00:33:36;96797.47;;;23.27;47.42
65227;BME280;51805;49.012;12.104;2023-04-24T00:36:01;96816.78;;;23.34;47.47
65227;BME280;51805;49.012;12.104;2023-04-24T00:38:26;96807.19;;;23.28;47.76
65227;BME280;51805;49.012;12.104;2023-04-24T00:40:52;96815.19;;;23.33;47.59
65227;BME280;51805;49.012;12.104;2023-04-24T00:43:17;96810.22;;;23.26;47.65
65227;BME280;51805;49.012;12.104;2023-04-24T00:45:43;96825.41;;;23.36;47.50
65227;BME280;51805;49.012;12.104;2023-04-24T00:48:08;96821.25;;;23.30;47.76
65227;BME280;51805;49.012;12.104;2023-04-24T00:50:36;96817.41;;;23.31;47.51
65227;BME280;51805;49.012;12.104;2023-04-24T00:53:01;96819.66;;;23.29;47.51
65227;BME280;51805;49.012;12.104;2023-04-24T00:55:26;96819.81;;;23.32;47.57
65227;BME280;51805;49.012;12.104;2023-04-24T00:57:52;96820.94;;;23.31;47.50
65227;BME280;51805;49.012;12.104;2023-04-24T01:00:17;96819.66;;;23.29;47.59
65227;BME280;51805;49.012;12.104;2023-04-24T01:02:44;96825.22;;;23.32;47.47
65227;BME280;51805;49.012;12.104;2023-04-24T01:05:09;96817.59;;;23.34;47.62
65227;BME280;51805;49.012;12.104;2023-04-24T01:07:35;96803.00;;;23.22;47.51
65227;BME280;51805;49.012;12.104;2023-04-24T01:10:01;96812.63;;;23.28;47.55
65227;BME280;51805;49.012;12.104;2023-04-24T01:12:26;96809.13;;;23.27;47.59
65227;BME280;51805;49.012;12.104;2023-04-24T01:14:52;96814.22;;;23.29;47.78
65227;BME280;51805;49.012;12.104;2023-04-24T01:17:17;96789.09;;;23.15;47.49
65227;BME280;51805;49.012;12.104;2023-04-24T01:19:42;96810.22;;;23.26;47.65
65227;BME280;51805;49.012;12.104;2023-04-24T01:22:13;96817.25;;;23.27;47.61
65227;BME280;51805;49.012;12.104;2023-04-24T01:24:38;96804.59;;;23.23;47.51
65227;BME280;51805;49.012;12.104;2023-04-24T01:27:04;96814.03;;;23.25;47.63
65227;BME280;51805;49.012;12.104;2023-04-24T01:29:29;96811.63;;;23.24;47.57
65227;BME280;51805;49.012;12.104;2023-04-24T01:31:55;96800.41;;;23.17;47.61
65227;BME280;51805;49.012;12.104;2023-04-24T01:34:20;96812.16;;;23.26;47.81
65227;BME280;51805;49.012;12.104;2023-04-24T01:36:45;96820.13;;;23.31;47.77
65227;BME280;51805;49.012;12.104;2023-04-24T01:39:11;96806.81;;;23.21;47.71
65227;BME280;51805;49.012;12.104;2023-04-24T01:41:36;96800.72;;;23.15;47.84
65227;BME280;51805;49.012;12.104;2023-04-24T01:44:02;96823.00;;;23.26;47.71
65227;BME280;51805;49.012;12.104;2023-04-24T01:46:27;96822.19;;;23.25;47.57
65227;BME280;51805;49.012;12.104;2023-04-24T01:48:53;96815.63;;;23.26;47.63
65227;BME280;51805;49.012;12.104;2023-04-24T01:51:18;96808.91;;;23.24;48.03
65227;BME280;51805;49.012;12.104;2023-04-24T01:53:43;96812.94;;;23.26;47.85
65227;BME280;51805;49.012;12.104;2023-04-24T01:56:09;96810.53;;;23.25;47.33
65227;BME280;51805;49.012;12.104;2023-04-24T01:58:34;96805.19;;;23.20;47.72
65227;BME280;51805;49.012;12.104;2023-04-24T02:01:00;96800.91;;;23.19;47.63
65227;BME280;51805;49.012;12.104;2023-04-24T02:03:26;96792.78;;;23.19;47.78
65227;BME280;51805;49.012;12.104;2023-04-24T02:05:51;96807.81;;;23.25;47.57
65227;BME280;51805;49.012;12.104;2023-04-24T02:08:17;96810.22;;;23.26;47.63
65227;BME280;51805;49.012;12.104;2023-04-24T02:10:42;96803.81;;;23.22;47.83
65227;BME280;51805;49.012;12.104;2023-04-24T02:13:07;96801.59;;;23.24;47.65
65227;BME280;51805;49.012;12.104;2023-04-24T02:15:33;96797.06;;;23.20;47.71
65227;BME280;51805;49.012;12.104;2023-04-24T02:17:58;96802.88;;;23.27;47.65
65227;BME280;51805;49.012;12.104;2023-04-24T02:20:23;96798.69;;;23.21;47.68
65227;BME280;51805;49.012;12.104;2023-04-24T02:22:49;96787.34;;;23.19;47.67
65227;BME280;51805;49.012;12.104;2023-04-24T02:25:14;96781.94;;;23.19;47.97
65227;BME280;51805;49.012;12.104;2023-04-24T02:27:39;96782.44;;;23.21;47.58
65227;BME280;51805;49.012;12.104;2023-04-24T02:30:05;96785.91;;;23.21;47.71
65227;BME280;51805;49.012;12.104;2023-04-24T02:32:30;96788.84;;;23.25;47.84
65227;BME280;51805;49.012;12.104;2023-04-24T02:34:56;96778.81;;;23.25;47.67
65227;BME280;51805;49.012;12.104;2023-04-24T02:37:21;96782.44;;;23.21;47.85
65227;BME280;51805;49.012;12.104;2023-04-24T02:39:46;96754.00;;;23.10;47.81
65227;BME280;51805;49.012;12.104;2023-04-24T02:42:11;96767.09;;;23.16;47.82
65227;BME280;51805;49.012;12.104;2023-04-24T02:44:37;96762.00;;;23.15;47.74
65227;BME280;51805;49.012;12.104;2023-04-24T02:47:02;96765.66;;;23.19;47.77
65227;BME280;51805;49.012;12.104;2023-04-24T02:49:27;96758.78;;;23.13;47.85
65227;BME280;51805;49.012;12.104;2023-04-24T02:51:53;96759.75;;;23.17;47.72
65227;BME280;51805;49.012;12.104;2023-04-24T02:54:18;96754.63;;;23.15;47.77
65227;BME280;51805;49.012;12.104;2023-04-24T02:56:43;96754.00;;;23.18;47.69
65227;BME280;51805;49.012;12.104;2023-04-24T02:59:08;96756.56;;;23.15;47.84
65227;BME280;51805;49.012;12.104;2023-04-24T03:01:34;96760.25;;;23.19;47.82
65227;BME280;51805;49.012;12.104;2023-04-24T03:03:59;96764.06;;;23.18;47.86
65227;BME280;51805;49.012;12.104;2023-04-24T03:06:24;96764.53;;;23.20;47.71
65227;BME280;51805;49.012;12.104;2023-04-24T03:08:49;96760.56;;;23.17;47.72
65227;BME280;51805;49.012;12.104;2023-04-24T03:11:15;96751.94;;;23.15;47.72
65227;BME280;51805;49.012;12.104;2023-04-24T03:13:40;96757.53;;;23.19;47.82
65227;BME280;51805;49.012;12.104;2023-04-24T03:16:05;96770.47;;;23.22;47.84
65227;BME280;51805;49.012;12.104;2023-04-24T03:18:31;96751.16;;;23.15;47.93
65227;BME280;51805;49.012;12.104;2023-04-24T03:20:56;96749.06;;;23.12;47.81
65227;BME280;51805;49.012;12.104;2023-04-24T03:23:21;96760.25;;;23.19;47.98
65227;BME280;51805;49.012;12.104;2023-04-24T03:25:46;96756.88;;;23.13;47.89
65227;BME280;51805;49.012;12.104;2023-04-24T03:28:12;96764.06;;;23.18;47.95
65227;BME280;51805;49.012;12.104;2023-04-24T03:30:37;96761.50;;;23.13;48.27
65227;BME280;51805;49.012;12.104;2023-04-24T03:33:02;96758.28;;;23.11;47.88
65227;BME280;51805;49.012;12.104;2023-04-24T03:35:28;96756.06;;;23.13;48.00
65227;BME280;51805;49.012;12.104;2023-04-24T03:37:53;96762.47;;;23.17;48.02
65227;BME280;51805;49.012;12.104;2023-04-24T03:40:18;96755.25;;;23.12;48.05
65227;BME280;51805;49.012;12.104;2023-04-24T03:42:43;96767.22;;;23.11;47.83
65227;BME280;51805;49.012;12.104;2023-04-24T03:45:09;96760.03;;;23.07;47.97
65227;BME280;51805;49.012;12.104;2023-04-24T03:47:35;96773.59;;;23.15;47.87
65227;BME280;51805;49.012;12.104;2023-04-24T03:50:00;96763.56;;;23.07;47.92
65227;BME280;51805;49.012;12.104;2023-04-24T03:52:25;96782.06;;;23.14;47.91
65227;BME280;51805;49.012;12.104;2023-04-24T03:54:51;96770.44;;;23.13;47.60
65227;BME280;51805;49.012;12.104;2023-04-24T03:57:16;96773.16;;;23.13;47.89
65227;BME280;51805;49.012;12.104;2023-04-24T03:59:41;96776.94;;;23.12;47.94
65227;BME280;51805;49.012;12.104;2023-04-24T04:04:34;96785.25;;;23.16;48.01
65227;BME280;51805;49.012;12.104;2023-04-24T04:07:00;96774.22;;;23.12;47.89
65227;BME280;51805;49.012;12.104;2023-04-24T04:09:25;96783.66;;;23.15;47.84
65227;BME280;51805;49.012;12.104;2023-04-24T04:11:50;96777.88;;;23.08;47.96
65227;BME280;51805;49.012;12.104;2023-04-24T04:14:15;96787.97;;;23.16;47.96
65227;BME280;51805;49.012;12.104;2023-04-24T04:16:41;96789.56;;;23.17;48.03
65227;BME280;51805;49.012;12.104;2023-04-24T04:19:06;96787.16;;;23.15;48.29
65227;BME280;51805;49.012;12.104;2023-04-24T04:21:31;96780.78;;;23.11;47.82
65227;BME280;51805;49.012;12.104;2023-04-24T04:23:57;96788.78;;;23.16;47.99
65227;BME280;51805;49.012;12.104;2023-04-24T04:26:22;96783.66;;;23.15;48.00
65227;BME280;51805;49.012;12.104;2023-04-24T04:28:47;96784.75;;;23.14;48.06
65227;BME280;51805;49.012;12.104;2023-04-24T04:31:13;96784.28;;;23.12;48.07
65227;BME280;51805;49.012;12.104;2023-04-24T04:33:38;96786.38;;;23.15;47.81
65227;BME280;51805;49.012;12.104;2023-04-24T04:36:03;96779.34;;;23.14;47.90
65227;BME280;51805;49.012;12.104;2023-04-24T04:38:29;96785.38;;;23.11;47.98
65227;BME280;51805;49.012;12.104;2023-04-24T04:40:54;96784.75;;;23.14;47.97
65227;BME280;51805;49.012;12.104;2023-04-24T04:43:19;96790.19;;;23.14;47.93
65227;BME280;51805;49.012;12.104;2023-04-24T04:45:45;96783.78;;;23.10;47.99
65227;BME280;51805;49.012;12.104;2023-04-24T04:48:10;96789.41;;;23.13;48.00
65227;BME280;51805;49.012;12.104;2023-04-24T04:50:35;96781.72;;;23.07;48.06
65227;BME280;51805;49.012;12.104;2023-04-24T04:53:01;96787.00;;;23.12;48.01
65227;BME280;51805;49.012;12.104;2023-04-24T04:55:26;96781.72;;;23.07;48.07
65227;BME280;51805;49.012;12.104;2023-04-24T04:57:51;96783.78;;;23.10;48.16
65227;BME280;51805;49.012;12.104;2023-04-24T05:00:17;96786.38;;;23.15;48.09
65227;BME280;51805;49.012;12.104;2023-04-24T05:02:42;96777.88;;;23.08;48.05
65227;BME280;51805;49.012;12.104;2023-04-24T05:05:08;96788.28;;;23.14;48.04
65227;BME280;51805;49.012;12.104;2023-04-24T05:07:33;96794.50;;;23.15;48.05
65227;BME280;51805;49.012;12.104;2023-04-24T05:09:58;96797.22;;;23.15;48.06
65227;BME280;51805;49.012;12.104;2023-04-24T05:12:24;96801.03;;;23.14;48.02
65227;BME280;51805;49.012;12.104;2023-04-24T05:14:49;96781.22;;;23.04;48.05
65227;BME280;51805;49.012;12.104;2023-04-24T05:17:15;96798.31;;;23.14;48.04
65227;BME280;51805;49.012;12.104;2023-04-24T05:19:40;96801.34;;;23.12;48.12
65227;BME280;51805;49.012;12.104;2023-04-24T05:22:05;96793.66;;;23.06;48.30
65227;BME280;51805;49.012;12.104;2023-04-24T05:24:31;96800.88;;;23.10;47.98
65227;BME280;51805;49.012;12.104;2023-04-24T05:26:56;96800.69;;;23.07;48.13
65227;BME280;51805;49.012;12.104;2023-04-24T05:29:21;96793.66;;;23.06;48.15
65227;BME280;51805;49.012;12.104;2023-04-24T05:31:47;96807.88;;;23.11;48.00
65227;BME280;51805;49.012;12.104;2023-04-24T05:34:12;96815.38;;;23.14;48.00
65227;BME280;51805;49.012;12.104;2023-04-24T05:36:37;96828.63;;;23.16;47.99
65227;BME280;51805;49.012;12.104;2023-04-24T05:39:02;96822.72;;;23.14;47.97
65227;BME280;51805;49.012;12.104;2023-04-24T05:41:28;96819.34;;;23.08;47.92
65227;BME280;51805;49.012;12.104;2023-04-24T05:43:53;96824.94;;;23.12;48.01
65227;BME280;51805;49.012;12.104;2023-04-24T05:46:18;96826.22;;;23.14;47.94
65227;BME280;51805;49.012;12.104;2023-04-24T05:48:43;96811.53;;;23.07;47.89
65227;BME280;51805;49.012;12.104;2023-04-24T05:51:09;96835.63;;;23.17;47.95
65227;BME280;51805;49.012;12.104;2023-04-24T05:53:34;96835.78;;;23.12;47.78
65227;BME280;51805;49.012;12.104;2023-04-24T05:56:00;96825.72;;;23.12;47.95
65227;BME280;51805;49.012;12.104;2023-04-24T05:58:25;96832.94;;;23.17;48.25
65227;BME280;51805;49.012;12.104;2023-04-24T06:00:50;96826.84;;;23.11;48.07
65227;BME280;51805;49.012;12.104;2023-04-24T06:03:15;96819.53;;;23.12;48.09
65227;BME280;51805;49.012;12.104;2023-04-24T06:05:41;96828.13;;;23.14;48.10
65227;BME280;51805;49.012;12.104;2023-04-24T06:08:06;96829.13;;;23.18;47.99
65227;BME280;51805;49.012;12.104;2023-04-24T06:10:31;96829.75;;;23.15;47.99
65227;BME280;51805;49.012;12.104;2023-04-24T06:12:58;96836.94;;;23.19;48.02
65227;BME280;51805;49.012;12.104;2023-04-24T06:15:23;96833.53;;;23.14;48.29
65227;BME280;51805;49.012;12.104;2023-04-24T06:17:48;96825.56;;;23.09;48.07
65227;BME280;51805;49.012;12.104;2023-04-24T06:20:14;96832.75;;;23.13;48.02
65227;BME280;51805;49.012;12.104;2023-04-24T06:22:39;96839.97;;;23.18;48.09
65227;BME280;51805;49.012;12.104;2023-04-24T06:25:05;96841.56;;;23.19;47.89
65227;BME280;51805;49.012;12.104;2023-04-24T06:27:30;96833.53;;;23.14;47.99
65227;BME280;51805;49.012;12.104;2023-04-24T06:29:55;96833.53;;;23.14;47.91
65227;BME280;51805;49.012;12.104;2023-04-24T06:32:24;96824.25;;;23.06;48.02
65227;BME280;51805;49.012;12.104;2023-04-24T06:34:49;96849.38;;;23.20;47.92
65227;BME280;51805;49.012;12.104;2023-04-24T06:37:15;96853.41;;;23.23;48.60
65227;BME280;51805;49.012;12.104;2023-04-24T06:39:41;96832.47;;;23.15;49.22
65227;BME280;51805;49.012;12.104;2023-04-24T06:42:06;96850.88;;;23.26;50.01
65227;BME280;51805;49.012;12.104;2023-04-24T06:44:31;96840.94;;;23.22;50.43
65227;BME280;51805;49.012;12.104;2023-04-24T06:46:56;96838.53;;;23.20;50.59
65227;BME280;51805;49.012;12.104;2023-04-24T06:49:22;96844.53;;;23.31;50.63
65227;BME280;51805;49.012;12.104;2023-04-24T06:51:47;96838.31;;;23.30;50.38
65227;BME280;51805;49.012;12.104;2023-04-24T06:54:12;96830.50;;;23.29;50.42
65227;BME280;51805;49.012;12.104;2023-04-24T06:56:38;96834.66;;;23.35;50.40
65227;BME280;51805;49.012;12.104;2023-04-24T06:59:03;96839.47;;;23.38;50.33
65227;BME280;51805;49.012;12.104;2023-04-24T07:01:28;96834.50;;;23.31;50.33
65227;BME280;51805;49.012;12.104;2023-04-24T07:03:54;96841.06;;;23.39;50.36
65227;BME280;51805;49.012;12.104;2023-04-24T07:06:19;96832.44;;;23.37;50.54
65227;BME280;51805;49.012;12.104;2023-04-24T07:08:44;96837.41;;;23.43;50.53
65227;BME280;51805;49.012;12.104;2023-04-24T07:11:09;96845.53;;;23.43;50.26
65227;BME280;51805;49.012;12.104;2023-04-24T07:13:35;96825.41;;;23.36;50.59
65227;BME280;51805;49.012;12.104;2023-04-24T07:16:00;96841.25;;;23.42;50.52
65227;BME280;51805;49.012;12.104;2023-04-24T07:18:25;96850.03;;;23.48;50.69
65227;BME280;51805;49.012;12.104;2023-04-24T07:20:51;96830.59;;;23.46;50.61
65227;BME280;51805;49.012;12.104;2023-04-24T07:23:17;96841.44;;;23.46;50.35
65227;BME280;51805;49.012;12.104;2023-04-24T07:25:42;96833.41;;;23.41;50.66
65227;BME280;51805;49.012;12.104;2023-04-24T07:28:08;96834.38;;;23.45;50.71
65227;BME280;51805;49.012;12.104;2023-04-24T07:30:33;96833.75;;;23.48;50.54
65227;BME280;51805;49.012;12.104;2023-04-24T07:32:59;96847.19;;;23.53;50.50
65227;BME280;51805;49.012;12.104;2023-04-24T07:35:25;96843.19;;;23.50;50.54
65227;BME280;51805;49.012;12.104;2023-04-24T07:37:51;96842.41;;;23.50;50.64
65227;BME280;51805;49.012;12.104;2023-04-24T07:40:16;96832.78;;;23.44;50.54
65227;BME280;51805;49.012;12.104;2023-04-24T07:42:42;96854.53;;;23.52;50.73
65227;BME280;51805;49.012;12.104;2023-04-24T07:45:07;96850.41;;;23.55;50.70
65227;BME280;51805;49.012;12.104;2023-04-24T07:47:34;96828.50;;;23.43;50.76
65227;BME280;51805;49.012;12.104;2023-04-24T07:49:59;96849.09;;;23.52;50.76
65227;BME280;51805;49.012;12.104;2023-04-24T07:52:24;96851.50;;;23.54;50.71
65227;BME280;51805;49.012;12.104;2023-04-24T07:54:50;96856.28;;;23.57;50.71
65227;BME280;51805;49.012;12.104;2023-04-24T07:57:16;96842.72;;;23.48;50.60
65227;BME280;51805;49.012;12.104;2023-04-24T07:59:41;96854.84;;;23.51;50.62
65227;BME280;51805;49.012;12.104;2023-04-24T08:02:07;96870.03;;;23.60;50.55
65227;BME280;51805;49.012;12.104;2023-04-24T08:04:32;96867.63;;;23.59;50.59
65227;BME280;51805;49.012;12.104;2023-04-24T08:06:58;96862.41;;;23.62;50.71
65227;BME280;51805;49.012;12.104;2023-04-24T08:09:23;96857.72;;;23.54;50.47
65227;BME280;51805;49.012;12.104;2023-04-24T08:11:48;96861.09;;;23.60;50.46
65227;BME280;51805;49.012;12.104;2023-04-24T08:14:14;96861.78;;;23.65;50.45
65227;BME280;51805;49.012;12.104;2023-04-24T08:16:39;96848.66;;;23.59;50.47
65227;BME280;51805;49.012;12.104;2023-04-24T08:19:07;96860.84;;;23.70;50.33
65227;BME280;51805;49.012;12.104;2023-04-24T08:21:32;96841.50;;;23.63;50.27
65227;BME280;51805;49.012;12.104;2023-04-24T08:23:58;96866.91;;;23.75;50.24
65227;BME280;51805;49.012;12.104;2023-04-24T08:26:23;96860.84;;;23.78;50.21
65227;BME280;51805;49.012;12.104;2023-04-24T08:28:49;96858.94;;;23.79;50.12
65227;BME280;51805;49.012;12.104;2023-04-24T08:31:14;96858.44;;;23.77;50.22
65227;BME280;51805;49.012;12.104;2023-04-24T08:33:39;96855.91;;;23.72;50.17
65227;BME280;51805;49.012;12.104;2023-04-24T08:36:05;96893.56;;;23.73;50.23
65227;BME280;51805;49.012;12.104;2023-04-24T08:38:31;96885.69;;;23.63;50.30
65227;BME280;51805;49.012;12.104;2023-04-24T08:40:58;96897.53;;;23.67;50.37
65227;BME280;51805;49.012;12.104;2023-04-24T08:43:24;96912.50;;;23.65;50.30
65227;BME280;51805;49.012;12.104;2023-04-24T08:45:50;96908.81;;;23.61;50.53
65227;BME280;51805;49.012;12.104;2023-04-24T08:48:16;96903.41;;;23.61;50.25
65227;BME280;51805;49.012;12.104;2023-04-24T08:50:42;96906.22;;;23.56;50.25
65227;BME280;51805;49.012;12.104;2023-04-24T08:53:08;96915.84;;;23.62;50.30
65227;BME280;51805;49.012;12.104;2023-04-24T08:55:34;96910.22;;;23.58;50.13
65227;BME280;51805;49.012;12.104;2023-04-24T08:58:01;96910.22;;;23.58;50.22
65227;BME280;51805;49.012;12.104;2023-04-24T09:00:27;96924.47;;;23.64;50.00
65227;BME280;51805;49.012;12.104;2023-04-24T09:02:53;96926.06;;;23.65;50.08
65227;BME280;51805;49.012;12.104;2023-04-24T09:05:20;96927.69;;;23.66;50.28
65227;BME280;51805;49.012;12.104;2023-04-24T09:07:55;96921.63;;;23.69;50.11
65227;BME280;51805;49.012;12.104;2023-04-24T09:10:22;96924.34;;;23.69;50.04
65227;BME280;51805;49.012;12.104;2023-04-24T09:12:50;96915.41;;;23.68;50.06
65227;BME280;51805;49.012;12.104;2023-04-24T09:15:16;96909.97;;;23.68;50.09
65227;BME280;51805;49.012;12.104;2023-04-24T09:17:41;96910.59;;;23.65;50.15
65227;BME280;51805;49.012;12.104;2023-04-24T09:20:07;96889.03;;;23.60;50.03
65227;BME280;51805;49.012;12.104;2023-04-24T09:22:32;96905.50;;;23.72;50.05
65227;BME280;51805;49.012;12.104;2023-04-24T09:25:06;96896.72;;;23.67;50.11
65227;BME280;51805;49.012;12.104;2023-04-24T09:27:32;96904.88;;;23.75;49.95
65227;BME280;51805;49.012;12.104;2023-04-24T09:29:58;96895.66;;;23.76;49.95
65227;BME280;51805;49.012;12.104;2023-04-24T09:32:24;96901.84;;;23.77;49.96
65227;BME280;51805;49.012;12.104;2023-04-24T09:34:49;96889.41;;;23.76;50.02
65227;BME280;51805;49.012;12.104;2023-04-24T09:37:27;96890.38;;;23.80;49.93
65227;BME280;51805;49.012;12.104;2023-04-24T09:40:10;96890.22;;;23.76;49.99
65227;BME280;51805;49.012;12.104;2023-04-24T09:42:35;96897.88;;;23.74;50.25
65227;BME280;51805;49.012;12.104;2023-04-24T09:45:01;96899.31;;;23.72;50.09
65227;BME280;51805;49.012;12.104;2023-04-24T09:47:26;96915.47;;;23.85;50.12
65227;BME280;51805;49.012;12.104;2023-04-24T09:49:57;96919.91;;;23.81;50.04
65227;BME280;51805;49.012;12.104;2023-04-24T09:52:22;96910.50;;;23.79;49.91
65227;BME280;51805;49.012;12.104;2023-04-24T09:54:53;96928.09;;;23.90;49.94
65227;BME280;51805;49.012;12.104;2023-04-24T09:57:18;96933.22;;;23.91;50.11
65227;BME280;51805;49.012;12.104;2023-04-24T09:59:45;96919.00;;;23.86;50.01
65227;BME280;51805;49.012;12.104;2023-04-24T10:02:18;96925.38;;;23.90;50.04
65227;BME280;51805;49.012;12.104;2023-04-24T10:04:54;96933.53;;;23.90;50.14
65227;BME280;51805;49.012;12.104;2023-04-24T10:07:19;96938.97;;;23.90;50.23
65227;BME280;51805;49.012;12.104;2023-04-24T10:09:45;96935.75;;;23.88;50.26
65227;BME280;51805;49.012;12.104;2023-04-24T10:12:10;96949.44;;;23.83;50.41
65227;BME280;51805;49.012;12.104;2023-04-24T10:14:36;96939.69;;;23.73;50.39
65227;BME280;51805;49.012;12.104;2023-04-24T10:17:02;96935.03;;;23.74;50.54
65227;BME280;51805;49.012;12.104;2023-04-24T10:19:29;96925.94;;;23.70;50.35
65227;BME280;51805;49.012;12.104;2023-04-24T10:21:54;96951.69;;;23.81;50.33
65227;BME280;51805;49.012;12.104;2023-04-24T10:24:21;96948.47;;;23.79;50.33
65227;BME280;51805;49.012;12.104;2023-04-24T10:26:46;96951.81;;;23.76;50.33
65227;BME280;51805;49.012;12.104;2023-04-24T10:29:13;96953.09;;;23.78;50.31
65227;BME280;51805;49.012;12.104;2023-04-24T10:31:39;96955.66;;;23.75;50.47
65227;BME280;51805;49.012;12.104;2023-04-24T10:34:05;96944.31;;;23.73;50.38
65227;BME280;51805;49.012;12.104;2023-04-24T10:36:32;96958.38;;;23.75;50.36
65227;BME280;51805;49.012;12.104;2023-04-24T10:39:00;96955.97;;;23.73;50.23
65227;BME280;51805;49.012;12.104;2023-04-24T10:41:26;96957.56;;;23.74;50.19
65227;BME280;51805;49.012;12.104;2023-04-24T10:44:05;96950.34;;;23.70;50.24
65227;BME280;51805;49.012;12.104;2023-04-24T10:46:31;96958.19;;;23.71;50.09
65227;BME280;51805;49.012;12.104;2023-04-24T10:48:56;96947.31;;;23.71;50.11
65227;BME280;51805;49.012;12.104;2023-04-24T10:51:23;96955.34;;;23.76;50.06
65227;BME280;51805;49.012;12.104;2023-04-24T10:53:51;96956.13;;;23.77;49.90
65227;BME280;51805;49.012;12.104;2023-04-24T10:56:17;96952.13;;;23.74;49.98
65227;BME280;51805;49.012;12.104;2023-04-24T10:58:44;96951.81;;;23.76;49.85
65227;BME280;51805;49.012;12.104;2023-04-24T11:01:23;96945.88;;;23.74;49.75
65227;BME280;51805;49.012;12.104;2023-04-24T11:03:57;96938.75;;;23.78;49.74
65227;BME280;51805;49.012;12.104;2023-04-24T11:06:48;96947.22;;;23.85;49.78
65227;BME280;51805;49.012;12.104;2023-04-24T11:09:15;96942.44;;;23.82;49.74
65227;BME280;51805;49.012;12.104;2023-04-24T11:11:45;96944.00;;;23.83;49.74
65227;BME280;51805;49.012;12.104;2023-04-24T11:14:10;96940.84;;;23.81;49.92
65227;BME280;51805;49.012;12.104;2023-04-24T11:16:42;96899.22;;;23.55;50.13
65227;BME280;51805;49.012;12.104;2023-04-24T11:22:14;96931.84;;;23.72;49.92
65227;BME280;51805;49.012;12.104;2023-04-24T11:29:44;96965.13;;;23.86;50.06
65227;BME280;51805;49.012;12.104;2023-04-24T11:34:49;96983.63;;;23.84;50.15
65227;BME280;51805;49.012;12.104;2023-04-24T11:37:15;96980.53;;;23.77;50.30
65227;BME280;51805;49.012;12.104;2023-04-24T11:39:40;96973.16;;;23.69;50.29
65227;BME280;51805;49.012;12.104;2023-04-24T11:42:07;96988.69;;;23.77;50.53
65227;BME280;51805;49.012;12.104;2023-04-24T11:44:33;96995.09;;;23.81;50.34
65227;BME280;51805;49.012;12.104;2023-04-24T11:46:59;96969.03;;;23.71;50.37
65227;BME280;51805;49.012;12.104;2023-04-24T11:49:24;96970.63;;;23.72;50.52
65227;BME280;51805;49.012;12.104;2023-04-24T11:51:50;96981.03;;;23.79;50.17
65227;BME280;51805;49.012;12.104;2023-04-24T11:54:15;96985.22;;;23.85;50.38
65227;BME280;51805;49.012;12.104;2023-04-24T11:56:45;96980.78;;;23.89;50.33
65227;BME280;51805;49.012;12.104;2023-04-24T11:59:11;96971.47;;;23.81;50.28
65227;BME280;51805;49.012;12.104;2023-04-24T12:01:45;96963.16;;;23.78;50.16
65227;BME280;51805;49.012;12.104;2023-04-24T12:04:11;96952.94;;;23.75;50.27
65227;BME280;51805;49.012;12.104;2023-04-24T12:06:37;96975.09;;;23.99;50.18
65227;BME280;51805;49.012;12.104;2023-04-24T12:09:02;96981.03;;;24.01;50.07
65227;BME280;51805;49.012;12.104;2023-04-24T12:11:27;96966.97;;;23.99;49.95
65227;BME280;51805;49.012;12.104;2023-04-24T12:13:53;96975.28;;;24.02;49.73
65227;BME280;51805;49.012;12.104;2023-04-24T12:16:18;96982.50;;;24.07;50.07
65227;BME280;51805;49.012;12.104;2023-04-24T12:18:45;96980.91;;;24.06;49.98
65227;BME280;51805;49.012;12.104;2023-04-24T12:21:20;96991.75;;;24.06;50.00
65227;BME280;51805;49.012;12.104;2023-04-24T12:23:47;96984.72;;;24.05;50.22
65227;BME280;51805;49.012;12.104;2023-04-24T12:26:18;96992.97;;;24.00;50.13
65227;BME280;51805;49.012;12.104;2023-04-24T12:28:46;96983.13;;;24.04;50.06
65227;BME280;51805;49.012;12.104;2023-04-24T12:31:12;96959.38;;;23.87;50.08
65227;BME280;51805;49.012;12.104;2023-04-24T12:33:37;96962.44;;;23.94;49.89
65227;BME280;51805;49.012;12.104;2023-04-24T12:36:03;96945.50;;;23.89;49.77
65227;BME280;51805;49.012;12.104;2023-04-24T12:38:29;96975.47;;;24.06;50.12
65227;BME280;51805;49.012;12.104;2023-04-24T12:41:08;96979.78;;;24.07;49.99
65227;BME280;51805;49.012;12.104;2023-04-24T12:43:34;96963.44;;;23.98;49.99
65227;BME280;51805;49.012;12.104;2023-04-24T12:45:59;96959.44;;;23.96;49.78
65227;BME280;51805;49.012;12.104;2023-04-24T12:48:26;96951.81;;;23.98;50.02
65227;BME280;51805;49.012;12.104;2023-04-24T12:50:51;96952.22;;;23.91;49.90
65227;BME280;51805;49.012;12.104;2023-04-24T12:53:16;96955.47;;;24.02;49.92
65227;BME280;51805;49.012;12.104;2023-04-24T12:55:42;96942.63;;;23.94;49.87
65227;BME280;51805;49.012;12.104;2023-04-24T12:58:09;96952.13;;;24.05;49.74